aviador You're here:

RODN Decoded Metar

KADENA in JAPAN
Report Time2017-07-21 05:56:00
UTC Time2017-07-21 06:51:42
Flight Rules vfr VFR
Wind200° at 05 kt
W.Decomp.*RWY 23: 4.5 kt HW 2.2 kt LCW
W.Rank200° ranks 13
Current wind is below 200° avg. (10.5)
Visibility9999 m
Phenomena:N/A
Clouds:Scattered 032 Hf
Expected CloudBase > 2,400 ft AGL from Temp-Dew spread
CeilingNone
Temp31°C (ISA +16)
Dew Point25°C (70% RH)
Heat Index37.6°C
QNH1013 hPa
Density Alt2,428 ft
Elevation148 ft
Report Wrong Elevation
Raw Report
RODN 210556Z AUTO 20005KT 10SM SCT032 31/25 A2990 RMK AO2 SLP129
T03140247 10329 20310 57007 $=

Extra information for RODN:More info

Metar Taf Metar & Taf Last 4 Metars F.Rules Stats Wind Profile Meteogram Temp Stats Airport Information Weather charts Add Link Nearby VenuesMetar ALERT Operation Metar Decoded Social comments